createdAt,value
2018-01-11T00:00:44.482Z,0
2018-01-11T00:01:44.440Z,0
2018-01-11T00:02:44.680Z,0
2018-01-11T00:03:44.668Z,0
2018-01-11T00:04:44.389Z,0
2018-01-11T00:05:44.649Z,0
2018-01-11T00:06:44.362Z,0
2018-01-11T00:07:44.620Z,0
2018-01-11T00:08:44.604Z,0
2018-01-11T00:09:44.593Z,0
2018-01-11T00:10:44.603Z,0
2018-01-11T00:11:44.642Z,0
2018-01-11T00:12:44.286Z,0
2018-01-11T00:13:44.281Z,0
2018-01-11T00:14:44.259Z,0
2018-01-11T00:15:44.243Z,0
2018-01-11T00:16:44.231Z,0
2018-01-11T00:17:44.464Z,0
2018-01-11T00:18:44.201Z,0
2018-01-11T00:19:44.446Z,0
2018-01-11T00:20:44.443Z,0
2018-01-11T00:21:44.158Z,0
2018-01-11T00:22:44.398Z,0
2018-01-11T00:23:44.172Z,0
2018-01-11T00:24:44.409Z,0
2018-01-11T00:25:44.384Z,0
2018-01-11T00:26:44.100Z,0
2018-01-11T00:27:44.075Z,0
2018-01-11T00:28:43.828Z,0
2018-01-11T00:29:44.057Z,0
2018-01-11T00:30:44.300Z,0
2018-01-11T00:31:44.266Z,0
2018-01-11T00:32:44.017Z,0
2018-01-11T00:33:44.260Z,0
2018-01-11T00:34:44.243Z,0
2018-01-11T00:35:44.239Z,0
2018-01-11T00:36:43.963Z,0
2018-01-11T00:37:44.214Z,0
2018-01-11T00:38:44.188Z,0
2018-01-11T00:39:44.164Z,0
2018-01-11T00:40:44.162Z,0
2018-01-11T00:41:44.140Z,0
2018-01-11T00:42:44.136Z,0
2018-01-11T00:43:43.859Z,0
2018-01-11T00:44:44.113Z,0
2018-01-11T00:45:44.109Z,0
2018-01-11T00:46:43.569Z,0
2018-01-11T00:47:44.084Z,0
2018-01-11T00:48:44.058Z,0
2018-01-11T00:49:43.539Z,0
2018-01-11T00:50:43.767Z,0
2018-01-11T00:51:44.009Z,0
2018-01-11T00:52:44.003Z,0
2018-01-11T00:53:43.479Z,0
2018-01-11T00:54:43.986Z,0
2018-01-11T00:55:43.742Z,0
2018-01-11T00:56:43.955Z,0
2018-01-11T00:57:43.999Z,0
2018-01-11T00:58:43.662Z,0
2018-01-11T00:59:43.904Z,0
2018-01-11T01:00:43.630Z,0
2018-01-11T01:01:43.641Z,0
2018-01-11T01:02:43.865Z,0
2018-01-11T01:03:43.328Z,0
2018-01-11T01:04:43.566Z,0
2018-01-11T01:05:43.825Z,0
2018-01-11T01:06:43.551Z,0
2018-01-11T01:07:43.794Z,0
2018-01-11T01:08:43.523Z,0
2018-01-11T01:09:43.765Z,0
2018-01-11T01:10:43.486Z,0
2018-01-11T01:11:43.732Z,0
2018-01-11T01:12:43.726Z,0
2018-01-11T01:13:43.459Z,0
2018-01-11T01:14:43.707Z,0
2018-01-11T01:15:43.690Z,0
2018-01-11T01:16:43.676Z,0
2018-01-11T01:17:43.661Z,0
2018-01-11T01:18:43.654Z,0
2018-01-11T01:19:43.627Z,0
2018-01-11T01:20:43.100Z,0
2018-01-11T01:21:43.351Z,0
2018-01-11T01:22:43.605Z,0
2018-01-11T01:23:43.579Z,0
2018-01-11T01:24:43.573Z,0
2018-01-11T01:25:43.557Z,0
2018-01-11T01:26:43.264Z,0
2018-01-11T01:27:43.554Z,0
2018-01-11T01:28:43.518Z,0
2018-01-11T01:29:43.520Z,0
2018-01-11T01:30:43.229Z,0
2018-01-11T01:31:43.455Z,0
2018-01-11T01:32:43.213Z,0
2018-01-11T01:33:43.436Z,0
2018-01-11T01:34:43.424Z,0
2018-01-11T01:35:43.428Z,0
2018-01-11T01:36:43.137Z,0
2018-01-11T01:37:43.400Z,0
2018-01-11T01:38:43.378Z,0
2018-01-11T01:39:43.111Z,0
2018-01-11T01:40:43.344Z,0
2018-01-11T01:41:43.397Z,0
2018-01-11T01:42:43.312Z,0
2018-01-11T01:43:43.307Z,0
2018-01-11T01:44:43.295Z,0
2018-01-11T01:45:43.018Z,0
2018-01-11T01:46:43.275Z,0
2018-01-11T01:47:43.262Z,0
2018-01-11T01:48:43.254Z,0
2018-01-11T01:49:43.231Z,0
2018-01-11T01:50:43.209Z,0
2018-01-11T01:51:43.210Z,0
2018-01-11T01:52:43.187Z,0
2018-01-11T01:53:43.178Z,0
2018-01-11T01:54:42.904Z,0
2018-01-11T01:55:43.172Z,0
2018-01-11T01:56:43.123Z,0
2018-01-11T01:57:43.171Z,0
2018-01-11T01:58:43.112Z,0
2018-01-11T01:59:43.116Z,0
2018-01-11T02:00:43.087Z,0
2018-01-11T02:01:42.843Z,0
2018-01-11T02:02:43.059Z,0
2018-01-11T02:03:43.048Z,0
2018-01-11T02:04:43.030Z,0
2018-01-11T02:05:43.014Z,0
2018-01-11T02:06:42.746Z,0
2018-01-11T02:07:42.732Z,0
2018-01-11T02:08:42.990Z,0
2018-01-11T02:09:42.966Z,0
2018-01-11T02:10:42.974Z,0
2018-01-11T02:11:42.948Z,0
2018-01-11T02:12:42.937Z,0
2018-01-11T02:13:42.933Z,0
2018-01-11T02:14:42.921Z,0
2018-01-11T02:15:42.903Z,0
2018-01-11T02:16:42.884Z,0
2018-01-11T02:17:42.867Z,0
2018-01-11T02:18:42.842Z,0
2018-01-11T02:19:42.850Z,0
2018-01-11T02:20:42.563Z,0
2018-01-11T02:21:42.805Z,0
2018-01-11T02:22:42.815Z,0
2018-01-11T02:23:42.522Z,0
2018-01-11T02:24:42.824Z,0
2018-01-11T02:25:42.750Z,0
2018-01-11T02:26:42.226Z,0
2018-01-11T02:27:42.485Z,0
2018-01-11T02:28:42.730Z,0
2018-01-11T02:29:42.713Z,0
2018-01-11T02:30:42.700Z,0
2018-01-11T02:31:42.703Z,0
2018-01-11T02:32:42.671Z,0
2018-01-11T02:33:42.656Z,0
2018-01-11T02:34:42.630Z,0
2018-01-11T02:35:42.648Z,0
2018-01-11T02:36:42.367Z,0
2018-01-11T02:37:42.596Z,0
2018-01-11T02:38:42.347Z,0
2018-01-11T02:39:42.588Z,0
2018-01-11T02:40:42.572Z,0
2018-01-11T02:41:42.549Z,0
2018-01-11T02:42:42.545Z,0
2018-01-11T02:43:42.538Z,0
2018-01-11T02:44:42.494Z,0
2018-01-11T02:45:42.238Z,0
2018-01-11T02:46:42.246Z,0
2018-01-11T02:47:42.469Z,0
2018-01-11T02:48:42.762Z,0
2018-01-11T02:49:41.936Z,0
2018-01-11T02:50:42.434Z,0
2018-01-11T02:51:42.426Z,0
2018-01-11T02:52:42.159Z,0
2018-01-11T02:53:42.400Z,0
2018-01-11T02:54:42.390Z,0
2018-01-11T02:55:42.113Z,0
2018-01-11T02:56:42.086Z,0
2018-01-11T02:57:42.341Z,0
2018-01-11T02:58:42.348Z,0
2018-01-11T02:59:42.304Z,0
2018-01-11T03:00:42.304Z,0
2018-01-11T03:01:42.274Z,0
2018-01-11T03:02:42.259Z,0
2018-01-11T03:03:41.735Z,0
2018-01-11T03:04:42.243Z,0
2018-01-11T03:05:41.961Z,0
2018-01-11T03:06:42.212Z,0
2018-01-11T03:07:42.187Z,0
2018-01-11T03:08:42.197Z,0
2018-01-11T03:09:42.187Z,0
2018-01-11T03:10:41.651Z,0
2018-01-11T03:11:41.642Z,0
2018-01-11T03:12:42.136Z,0
2018-01-11T03:13:41.877Z,0
2018-01-11T03:14:42.117Z,0
2018-01-11T03:15:42.094Z,0
2018-01-11T03:16:42.092Z,0
2018-01-11T03:17:41.862Z,0
2018-01-11T03:18:42.047Z,0
2018-01-11T03:19:42.039Z,0
2018-01-11T03:20:41.783Z,0
2018-01-11T03:21:41.753Z,0
2018-01-11T03:22:42.014Z,0
2018-01-11T03:23:41.992Z,0
2018-01-11T03:24:41.715Z,0
2018-01-11T03:25:41.975Z,0
2018-01-11T03:26:41.691Z,0
2018-01-11T03:27:41.938Z,0
2018-01-11T03:28:41.930Z,0
2018-01-11T03:29:41.720Z,0
2018-01-11T03:30:41.904Z,0
2018-01-11T03:31:41.903Z,0
2018-01-11T03:32:41.873Z,0
2018-01-11T03:33:41.599Z,0
2018-01-11T03:34:41.596Z,0
2018-01-11T03:35:41.851Z,0
2018-01-11T03:36:41.825Z,0
2018-01-11T03:37:41.566Z,0
2018-01-11T03:38:41.800Z,0
2018-01-11T03:39:41.769Z,0
2018-01-11T03:40:41.771Z,0
2018-01-11T03:41:41.753Z,0
2018-01-11T03:42:41.494Z,0
2018-01-11T03:43:41.735Z,0
2018-01-11T03:44:41.454Z,0
2018-01-11T03:45:41.443Z,0
2018-01-11T03:46:41.692Z,0
2018-01-11T03:47:41.668Z,0
2018-01-11T03:48:41.406Z,0
2018-01-11T03:49:41.400Z,0
2018-01-11T03:50:41.621Z,0
2018-01-11T03:51:41.643Z,0
2018-01-11T03:52:41.624Z,0
2018-01-11T03:53:41.342Z,0
2018-01-11T03:54:41.338Z,0
2018-01-11T03:55:41.567Z,0
2018-01-11T03:56:41.293Z,0
2018-01-11T03:57:41.300Z,0
2018-01-11T03:58:41.278Z,0
2018-01-11T03:59:41.261Z,0
2018-01-11T04:00:41.248Z,0
2018-01-11T04:01:41.246Z,0
2018-01-11T04:02:41.481Z,0
2018-01-11T04:03:41.212Z,0
2018-01-11T04:04:41.479Z,0
2018-01-11T04:05:40.923Z,0
2018-01-11T04:06:40.915Z,0
2018-01-11T04:07:41.401Z,0
2018-01-11T04:08:41.152Z,0
2018-01-11T04:09:41.373Z,0
2018-01-11T04:10:41.122Z,0
2018-01-11T04:11:41.113Z,0
2018-01-11T04:12:41.411Z,0
2018-01-11T04:13:41.079Z,0
2018-01-11T04:14:41.343Z,0
2018-01-11T04:15:41.294Z,0
2018-01-11T04:16:41.304Z,0
2018-01-11T04:17:41.276Z,0
2018-01-11T04:18:41.322Z,0
2018-01-11T04:19:41.031Z,0
2018-01-11T04:20:40.732Z,0
2018-01-11T04:21:40.980Z,0
2018-01-11T04:22:40.970Z,0
2018-01-11T04:23:41.219Z,0
2018-01-11T04:24:40.941Z,0
2018-01-11T04:25:40.931Z,0
2018-01-11T04:26:41.163Z,0
2018-01-11T04:27:41.144Z,0
2018-01-11T04:28:40.896Z,0
2018-01-11T04:29:40.866Z,0
2018-01-11T04:30:41.124Z,0
2018-01-11T04:31:40.872Z,0
2018-01-11T04:32:41.082Z,0
2018-01-11T04:33:41.080Z,0
2018-01-11T04:34:41.061Z,0
2018-01-11T04:35:41.038Z,0
2018-01-11T04:36:41.041Z,0
2018-01-11T04:37:41.022Z,0
2018-01-11T04:38:41.021Z,0
2018-01-11T04:39:40.491Z,0
2018-01-11T04:40:40.991Z,0
2018-01-11T04:41:40.959Z,0
2018-01-11T04:42:40.948Z,0
2018-01-11T04:43:40.675Z,0
2018-01-11T04:44:40.679Z,0
2018-01-11T04:45:40.898Z,0
2018-01-11T04:46:40.373Z,0
2018-01-11T04:47:40.886Z,0
2018-01-11T04:48:40.875Z,0
2018-01-11T04:49:40.341Z,0
2018-01-11T04:50:40.578Z,0
2018-01-11T04:51:40.841Z,0
2018-01-11T04:52:40.804Z,0
2018-01-11T04:53:40.556Z,0
2018-01-11T04:54:40.787Z,0
2018-01-11T04:55:40.774Z,0
2018-01-11T04:56:40.493Z,0
2018-01-11T04:57:40.759Z,0
2018-01-11T04:58:40.236Z,0
2018-01-11T04:59:40.731Z,0
2018-01-11T05:00:40.712Z,0
2018-01-11T05:01:40.423Z,0
2018-01-11T05:02:40.408Z,0
2018-01-11T05:03:40.139Z,0
2018-01-11T05:04:40.136Z,0
2018-01-11T05:05:40.111Z,0
2018-01-11T05:06:40.109Z,0
2018-01-11T05:07:40.349Z,0
2018-01-11T05:08:40.360Z,0
2018-01-11T05:09:40.331Z,0
2018-01-11T05:10:40.556Z,0
2018-01-11T05:11:40.052Z,0
2018-01-11T05:12:39.759Z,0
2018-01-11T05:13:40.531Z,0
2018-01-11T05:14:40.520Z,0
2018-01-11T05:15:40.511Z,0
2018-01-11T05:16:40.240Z,0
2018-01-11T05:17:40.223Z,0
2018-01-11T05:18:39.946Z,0
2018-01-11T05:19:40.430Z,0
2018-01-11T05:20:40.166Z,0
2018-01-11T05:21:40.164Z,0
2018-01-11T05:22:40.410Z,0
2018-01-11T05:23:40.133Z,0
2018-01-11T05:24:40.388Z,0
2018-01-11T05:25:40.386Z,0
2018-01-11T05:26:40.343Z,0
2018-01-11T05:27:40.148Z,0
2018-01-11T05:28:40.344Z,0
2018-01-11T05:29:40.060Z,0
2018-01-11T05:30:40.024Z,0
2018-01-11T05:31:39.766Z,0
2018-01-11T05:32:40.006Z,0
2018-01-11T05:33:40.280Z,0
2018-01-11T05:34:39.733Z,0
2018-01-11T05:35:40.281Z,0
2018-01-11T05:36:40.220Z,0
2018-01-11T05:37:39.930Z,0
2018-01-11T05:38:40.189Z,0
2018-01-11T05:39:39.667Z,0
2018-01-11T05:40:39.642Z,0
2018-01-11T05:41:39.879Z,0
2018-01-11T05:42:39.866Z,0
2018-01-11T05:43:39.865Z,0
2018-01-11T05:44:40.126Z,0
2018-01-11T05:45:40.085Z,0
2018-01-11T05:46:40.064Z,0
2018-01-11T05:47:39.557Z,0
2018-01-11T05:48:39.790Z,0
2018-01-11T05:49:40.017Z,0
2018-01-11T05:50:39.759Z,0
2018-01-11T05:51:39.752Z,0
2018-01-11T05:52:39.988Z,0
2018-01-11T05:53:39.707Z,0
2018-01-11T05:54:39.464Z,0
2018-01-11T05:55:39.699Z,0
2018-01-11T05:56:39.678Z,0
2018-01-11T05:57:39.932Z,0
2018-01-11T05:58:39.389Z,0
2018-01-11T05:59:39.885Z,0
2018-01-11T06:00:39.892Z,0
2018-01-11T06:01:39.596Z,0
2018-01-11T06:02:39.333Z,0
2018-01-11T06:03:39.316Z,0
2018-01-11T06:04:39.818Z,0
2018-01-11T06:05:39.545Z,0
2018-01-11T06:06:39.519Z,0
2018-01-11T06:07:39.777Z,0
2018-01-11T06:08:39.762Z,0
2018-01-11T06:09:39.492Z,0
2018-01-11T06:10:39.728Z,0
2018-01-11T06:11:39.460Z,0
2018-01-11T06:12:39.198Z,0
2018-01-11T06:13:39.179Z,0
2018-01-11T06:14:39.716Z,0
2018-01-11T06:15:39.647Z,0
2018-01-11T06:16:39.666Z,0
2018-01-11T06:17:39.376Z,0
2018-01-11T06:18:39.618Z,0
2018-01-11T06:19:39.615Z,0
2018-01-11T06:20:39.076Z,0
2018-01-11T06:21:39.319Z,0
2018-01-11T06:22:39.572Z,0
2018-01-11T06:23:39.058Z,0
2018-01-11T06:24:39.556Z,0
2018-01-11T06:25:39.034Z,0
2018-01-11T06:26:39.519Z,0
2018-01-11T06:27:39.503Z,0
2018-01-11T06:28:39.228Z,0
2018-01-11T06:29:39.465Z,0
2018-01-11T06:30:39.467Z,0
2018-01-11T06:31:39.290Z,0
2018-01-11T06:32:39.197Z,0
2018-01-11T06:33:39.416Z,0
2018-01-11T06:34:39.159Z,0
2018-01-11T06:35:39.136Z,0
2018-01-11T06:36:39.387Z,0
2018-01-11T06:37:39.377Z,0
2018-01-11T06:38:39.340Z,0
2018-01-11T06:39:39.103Z,0
2018-01-11T06:40:39.405Z,0
2018-01-11T06:41:39.056Z,0
2018-01-11T06:42:39.352Z,0
2018-01-11T06:43:39.298Z,0
2018-01-11T06:44:39.021Z,0
2018-01-11T06:45:39.014Z,0
2018-01-11T06:46:39.243Z,0
2018-01-11T06:47:38.977Z,0
2018-01-11T06:48:38.992Z,0
2018-01-11T06:49:39.215Z,0
2018-01-11T06:50:39.200Z,0
2018-01-11T06:51:38.939Z,0
2018-01-11T06:52:39.225Z,0
2018-01-11T06:53:38.885Z,0
2018-01-11T06:54:38.870Z,0
2018-01-11T06:55:38.888Z,0
2018-01-11T06:56:38.874Z,0
2018-01-11T06:57:39.091Z,0
2018-01-11T06:58:38.836Z,0
2018-01-11T06:59:38.825Z,0
2018-01-11T07:00:38.820Z,0
2018-01-11T07:01:39.070Z,0
2018-01-11T07:02:39.030Z,0
2018-01-11T07:03:38.516Z,0
2018-01-11T07:04:38.769Z,0
2018-01-11T07:05:38.730Z,0
2018-01-11T07:06:38.726Z,0
2018-01-11T07:07:38.713Z,0
2018-01-11T07:08:38.954Z,0
2018-01-11T07:09:38.696Z,0
2018-01-11T07:10:38.451Z,0
2018-01-11T07:11:38.718Z,0
2018-01-11T07:12:38.909Z,0
2018-01-11T07:13:38.682Z,0
2018-01-11T07:14:38.633Z,5
2018-01-11T07:15:38.862Z,5
2018-01-11T07:16:38.594Z,5
2018-01-11T07:17:38.853Z,5
2018-01-11T07:18:38.824Z,5
2018-01-11T07:19:38.806Z,5
2018-01-11T07:20:38.796Z,5
2018-01-11T07:21:38.546Z,5
2018-01-11T07:22:38.777Z,5
2018-01-11T07:23:38.502Z,5
2018-01-11T07:24:38.500Z,5
2018-01-11T07:25:38.472Z,5
2018-01-11T07:26:38.782Z,5
2018-01-11T07:27:38.651Z,10
2018-01-11T07:28:38.440Z,10
2018-01-11T07:29:38.758Z,10
2018-01-11T07:30:38.413Z,10
2018-01-11T07:31:38.663Z,10
2018-01-11T07:32:38.399Z,10
2018-01-11T07:33:38.473Z,10
2018-01-11T07:34:38.349Z,10
2018-01-11T07:35:38.613Z,10
2018-01-11T07:36:38.603Z,15
2018-01-11T07:37:38.315Z,15
2018-01-11T07:38:38.307Z,15
2018-01-11T07:39:38.561Z,15
2018-01-11T07:40:38.293Z,15
2018-01-11T07:41:38.583Z,15
2018-01-11T07:42:38.510Z,15
2018-01-11T07:43:38.515Z,20
2018-01-11T07:44:38.490Z,20
2018-01-11T07:45:38.480Z,20
2018-01-11T07:46:38.453Z,20
2018-01-11T07:47:38.230Z,20
2018-01-11T07:48:38.176Z,20
2018-01-11T07:49:38.171Z,20
2018-01-11T07:50:38.408Z,20
2018-01-11T07:51:38.145Z,20
2018-01-11T07:52:38.121Z,20
2018-01-11T07:53:38.124Z,20
2018-01-11T07:54:37.846Z,20
2018-01-11T07:55:38.078Z,20
2018-01-11T07:56:38.076Z,20
2018-01-11T07:57:38.328Z,20
2018-01-11T07:58:38.313Z,20
2018-01-11T07:59:37.841Z,20
2018-01-11T08:00:38.275Z,20
2018-01-11T08:01:38.267Z,25
2018-01-11T08:02:37.744Z,25
2018-01-11T08:03:38.000Z,30
2018-01-11T08:04:38.255Z,30
2018-01-11T08:05:37.953Z,30
2018-01-11T08:06:37.929Z,35
2018-01-11T08:07:37.949Z,35
2018-01-11T08:08:38.173Z,35
2018-01-11T08:09:37.370Z,35
2018-01-11T08:10:38.144Z,35
2018-01-11T08:11:37.885Z,35
2018-01-11T08:12:37.857Z,35
2018-01-11T08:13:37.844Z,35
2018-01-11T08:14:38.159Z,35
2018-01-11T08:15:38.078Z,35
2018-01-11T08:16:38.086Z,35
2018-01-11T08:17:38.082Z,35
2018-01-11T08:18:37.804Z,35
2018-01-11T08:19:38.051Z,40
2018-01-11T08:20:38.039Z,40
2018-01-11T08:21:37.785Z,40
2018-01-11T08:22:37.986Z,40
2018-01-11T08:23:38.017Z,45
2018-01-11T08:24:37.989Z,45
2018-01-11T08:25:37.181Z,45
2018-01-11T08:26:37.433Z,45
2018-01-11T08:27:37.696Z,45
2018-01-11T08:28:37.661Z,50
2018-01-11T08:29:37.932Z,50
2018-01-11T08:30:37.902Z,45
2018-01-11T08:31:37.907Z,45
2018-01-11T08:32:37.881Z,45
2018-01-11T08:33:37.615Z,45
2018-01-11T08:34:37.841Z,45
2018-01-11T08:35:37.877Z,40
2018-01-11T08:36:37.560Z,40
2018-01-11T08:37:37.557Z,40
2018-01-11T08:38:37.549Z,40
2018-01-11T08:39:37.589Z,40
2018-01-11T08:40:37.514Z,40
2018-01-11T08:41:37.733Z,40
2018-01-11T08:42:37.764Z,40
2018-01-11T08:43:37.461Z,40
2018-01-11T08:44:37.720Z,40
2018-01-11T08:45:37.441Z,40
2018-01-11T08:46:37.679Z,40
2018-01-11T08:47:37.657Z,40
2018-01-11T08:48:37.419Z,40
2018-01-11T08:49:37.369Z,40
2018-01-11T08:50:37.390Z,40
2018-01-11T08:51:37.372Z,40
2018-01-11T08:52:37.584Z,40
2018-01-11T08:53:37.651Z,35
2018-01-11T08:54:37.308Z,35
2018-01-11T08:55:37.553Z,35
2018-01-11T08:56:37.557Z,35
2018-01-11T08:57:37.572Z,35
2018-01-11T08:58:37.526Z,35
2018-01-11T08:59:37.510Z,35
2018-01-11T09:00:37.322Z,35
2018-01-11T09:01:37.516Z,35
2018-01-11T09:02:37.221Z,35
2018-01-11T09:03:37.492Z,35
2018-01-11T09:04:36.951Z,35
2018-01-11T09:05:37.429Z,40
2018-01-11T09:06:37.170Z,40
2018-01-11T09:07:36.886Z,40
2018-01-11T09:08:37.136Z,45
2018-01-11T09:09:37.143Z,45
2018-01-11T09:10:37.392Z,45
2018-01-11T09:11:36.835Z,50
2018-01-11T09:12:37.079Z,50
2018-01-11T09:13:36.810Z,50
2018-01-11T09:14:37.364Z,55
2018-01-11T09:15:37.355Z,55
2018-01-11T09:16:37.301Z,55
2018-01-11T09:17:37.079Z,60
2018-01-11T09:18:36.748Z,60
2018-01-11T09:19:37.264Z,60
2018-01-11T09:20:37.249Z,65
2018-01-11T09:21:37.131Z,65
2018-01-11T09:22:37.454Z,65
2018-01-11T09:23:37.283Z,65
2018-01-11T09:24:37.384Z,70
2018-01-11T09:25:37.593Z,70
2018-01-11T09:26:37.649Z,70
2018-01-11T09:27:37.361Z,70
2018-01-11T09:28:37.322Z,70
2018-01-11T09:29:36.610Z,70
2018-01-11T09:30:36.906Z,70
2018-01-11T09:31:37.204Z,75
2018-01-11T09:32:37.209Z,80
2018-01-11T09:33:36.933Z,80
2018-01-11T09:34:37.133Z,80
2018-01-11T09:35:37.165Z,75
2018-01-11T09:36:36.543Z,80
2018-01-11T09:37:36.853Z,80
2018-01-11T09:38:36.572Z,80
2018-01-11T09:39:36.834Z,80
2018-01-11T09:40:37.012Z,75
2018-01-11T09:41:36.739Z,75
2018-01-11T09:42:37.069Z,75
2018-01-11T09:43:36.938Z,75
2018-01-11T09:44:36.715Z,75
2018-01-11T09:45:36.945Z,75
2018-01-11T09:46:36.410Z,75
2018-01-11T09:47:36.640Z,80
2018-01-11T09:48:37.104Z,80
2018-01-11T09:49:36.628Z,80
2018-01-11T09:50:36.372Z,85
2018-01-11T09:51:36.880Z,85
2018-01-11T09:52:36.887Z,85
2018-01-11T09:53:36.970Z,85
2018-01-11T09:54:36.573Z,85
2018-01-11T09:55:36.818Z,85
2018-01-11T09:56:36.887Z,85
2018-01-11T09:57:36.806Z,80
2018-01-11T09:58:36.770Z,80
2018-01-11T09:59:36.735Z,80
2018-01-11T10:00:36.785Z,80
2018-01-11T10:01:36.744Z,85
2018-01-11T10:02:36.869Z,85
2018-01-11T10:03:36.287Z,90
2018-01-11T10:04:36.732Z,90
2018-01-11T10:05:36.166Z,95
2018-01-11T10:06:36.401Z,100
2018-01-11T10:07:36.444Z,100
2018-01-11T10:08:36.483Z,100
2018-01-11T10:09:36.429Z,100
2018-01-11T10:10:36.637Z,100
2018-01-11T10:11:36.709Z,95
2018-01-11T10:12:36.637Z,90
2018-01-11T10:13:36.300Z,95
2018-01-11T10:14:36.703Z,95
2018-01-11T10:15:36.647Z,105
2018-01-11T10:16:36.408Z,110
2018-01-11T10:17:36.661Z,120
2018-01-11T10:18:36.572Z,125
2018-01-11T10:19:36.544Z,135
2018-01-11T10:20:36.703Z,140
2018-01-11T10:21:36.688Z,150
2018-01-11T10:22:36.962Z,155
2018-01-11T10:23:36.628Z,160
2018-01-11T10:24:35.993Z,165
2018-01-11T10:25:36.274Z,165
2018-01-11T10:26:36.474Z,165
2018-01-11T10:27:36.443Z,160
2018-01-11T10:28:36.414Z,150
2018-01-11T10:29:36.550Z,145
2018-01-11T10:30:36.444Z,140
2018-01-11T10:31:36.455Z,135
2018-01-11T10:32:36.114Z,130
2018-01-11T10:33:36.464Z,125
2018-01-11T10:34:36.305Z,125
2018-01-11T10:35:35.848Z,120
2018-01-11T10:36:36.146Z,120
2018-01-11T10:37:36.085Z,120
2018-01-11T10:38:35.596Z,120
2018-01-11T10:39:35.768Z,120
2018-01-11T10:40:35.891Z,125
2018-01-11T10:41:36.251Z,130
2018-01-11T10:42:36.219Z,135
2018-01-11T10:43:35.996Z,135
2018-01-11T10:44:36.188Z,130
2018-01-11T10:45:36.357Z,125
2018-01-11T10:46:36.058Z,120
2018-01-11T10:47:36.255Z,120
2018-01-11T10:48:35.816Z,110
2018-01-11T10:49:36.305Z,110
2018-01-11T10:50:35.496Z,100
2018-01-11T10:51:36.318Z,95
2018-01-11T10:52:35.962Z,85
2018-01-11T10:53:36.160Z,80
2018-01-11T10:54:36.062Z,75
2018-01-11T10:55:35.810Z,70
2018-01-11T10:56:36.055Z,70
2018-01-11T10:57:36.063Z,75
2018-01-11T10:58:35.910Z,75
2018-01-11T10:59:35.897Z,80
2018-01-11T11:00:35.828Z,80
2018-01-11T11:01:36.065Z,80
2018-01-11T11:02:35.810Z,80
2018-01-11T11:03:35.738Z,80
2018-01-11T11:04:35.999Z,85
2018-01-11T11:05:35.983Z,90
2018-01-11T11:06:35.461Z,90
2018-01-11T11:07:35.685Z,90
2018-01-11T11:08:35.977Z,90
2018-01-11T11:09:35.972Z,90
2018-01-11T11:10:35.952Z,90
2018-01-11T11:11:35.910Z,90
2018-01-11T11:12:35.633Z,95
2018-01-11T11:13:35.650Z,105
2018-01-11T11:14:35.635Z,105
2018-01-11T11:15:35.862Z,120
2018-01-11T11:16:35.580Z,130
2018-01-11T11:17:35.842Z,135
2018-01-11T11:18:35.806Z,150
2018-01-11T11:19:35.777Z,160
2018-01-11T11:20:35.522Z,170
2018-01-11T11:21:35.513Z,175
2018-01-11T11:22:35.532Z,170
2018-01-11T11:23:35.929Z,165
2018-01-11T11:24:35.716Z,160
2018-01-11T11:25:35.201Z,160
2018-01-11T11:26:35.724Z,155
2018-01-11T11:27:35.433Z,155
2018-01-11T11:28:35.452Z,160
2018-01-11T11:29:35.212Z,165
2018-01-11T11:30:35.890Z,165
2018-01-11T11:31:35.706Z,170
2018-01-11T11:32:35.122Z,160
2018-01-11T11:33:34.879Z,145
2018-01-11T11:34:35.387Z,135
2018-01-11T11:35:35.390Z,130
2018-01-11T11:36:35.208Z,130
2018-01-11T11:37:35.179Z,140
2018-01-11T11:38:35.652Z,135
2018-01-11T11:39:36.190Z,140
2018-01-11T11:40:35.849Z,150
2018-01-11T11:41:35.684Z,155
2018-01-11T11:42:35.658Z,160
2018-01-11T11:43:35.528Z,165
2018-01-11T11:44:35.500Z,175
2018-01-11T11:45:35.503Z,180
2018-01-11T11:46:35.470Z,185
2018-01-11T11:47:35.489Z,185
2018-01-11T11:48:35.478Z,190
2018-01-11T11:49:35.272Z,200
2018-01-11T11:50:35.504Z,205
2018-01-11T11:51:35.207Z,205
2018-01-11T11:52:35.422Z,205
2018-01-11T11:53:35.441Z,205
2018-01-11T11:54:35.395Z,200
2018-01-11T11:55:35.400Z,195
2018-01-11T11:56:35.327Z,185
2018-01-11T11:57:35.343Z,175
2018-01-11T11:58:35.118Z,185
2018-01-11T11:59:35.508Z,185
2018-01-11T12:00:34.791Z,190
2018-01-11T12:01:34.829Z,190
2018-01-11T12:02:35.076Z,190
2018-01-11T12:03:35.000Z,185
2018-01-11T12:04:35.325Z,180
2018-01-11T12:05:35.258Z,185
2018-01-11T12:06:34.982Z,180
2018-01-11T12:07:35.252Z,180
2018-01-11T12:08:35.043Z,180
2018-01-11T12:09:35.192Z,175
2018-01-11T12:10:34.949Z,170
2018-01-11T12:11:34.916Z,165
2018-01-11T12:12:34.966Z,160
2018-01-11T12:13:34.908Z,155
2018-01-11T12:14:35.432Z,150
2018-01-11T12:15:35.177Z,150
2018-01-11T12:16:35.195Z,155
2018-01-11T12:17:34.897Z,155
2018-01-11T12:18:35.007Z,165
2018-01-11T12:19:35.193Z,180
2018-01-11T12:20:35.230Z,185
2018-01-11T12:21:35.215Z,185
2018-01-11T12:22:35.414Z,175
2018-01-11T12:23:35.193Z,165
2018-01-11T12:24:35.205Z,155
2018-01-11T12:25:35.390Z,140
2018-01-11T12:26:34.337Z,135
2018-01-11T12:27:34.784Z,125
2018-01-11T12:28:34.532Z,115
2018-01-11T12:29:35.086Z,105
2018-01-11T12:30:35.721Z,95
2018-01-11T12:31:35.285Z,85
2018-01-11T12:32:35.042Z,80
2018-01-11T12:33:35.061Z,80
2018-01-11T12:34:34.752Z,70
2018-01-11T12:35:35.250Z,65
2018-01-11T12:36:34.372Z,65
2018-01-11T12:37:34.437Z,70
2018-01-11T12:38:34.420Z,70
2018-01-11T12:39:34.712Z,65
2018-01-11T12:40:35.196Z,65
2018-01-11T12:41:34.977Z,60
2018-01-11T12:42:34.937Z,60
2018-01-11T12:43:34.922Z,55
2018-01-11T12:44:34.347Z,50
2018-01-11T12:45:34.034Z,50
2018-01-11T12:46:34.965Z,50
2018-01-11T12:47:34.809Z,55
2018-01-11T12:48:34.635Z,55
2018-01-11T12:49:34.616Z,60
2018-01-11T12:50:34.734Z,60
2018-01-11T12:51:34.831Z,65
2018-01-11T12:52:34.458Z,70
2018-01-11T12:53:34.709Z,70
2018-01-11T12:54:34.685Z,75
2018-01-11T12:55:34.649Z,80
2018-01-11T12:56:34.679Z,90
2018-01-11T12:57:34.689Z,90
2018-01-11T12:58:33.984Z,100
2018-01-11T12:59:34.355Z,105
2018-01-11T13:00:34.338Z,110
2018-01-11T13:01:34.365Z,115
2018-01-11T13:02:34.552Z,120
2018-01-11T13:03:34.184Z,125
2018-01-11T13:04:34.031Z,130
2018-01-11T13:05:34.119Z,130
2018-01-11T13:06:34.569Z,130
2018-01-11T13:07:34.242Z,130
2018-01-11T13:08:33.984Z,135
2018-01-11T13:09:34.583Z,135
2018-01-11T13:10:34.047Z,135
2018-01-11T13:11:34.255Z,135
2018-01-11T13:12:34.260Z,130
2018-01-11T13:13:34.214Z,130
2018-01-11T13:14:34.447Z,130
2018-01-11T13:15:34.243Z,130
2018-01-11T13:16:34.477Z,130
2018-01-11T13:17:34.426Z,130
2018-01-11T13:18:34.420Z,130
2018-01-11T13:19:34.391Z,130
2018-01-11T13:20:33.958Z,130
2018-01-11T13:21:34.478Z,130
2018-01-11T13:22:34.467Z,130
2018-01-11T13:23:34.432Z,130
2018-01-11T13:24:34.340Z,130
2018-01-11T13:25:34.335Z,125
2018-01-11T13:26:33.891Z,120
2018-01-11T13:27:34.069Z,115
2018-01-11T13:28:34.020Z,110
2018-01-11T13:29:34.071Z,105
2018-01-11T13:30:33.993Z,105
2018-01-11T13:31:34.019Z,105
2018-01-11T13:32:33.760Z,105
2018-01-11T13:33:33.984Z,110
2018-01-11T13:34:34.028Z,110
2018-01-11T13:35:33.942Z,110
2018-01-11T13:36:34.227Z,110
2018-01-11T13:37:33.892Z,105
2018-01-11T13:38:33.950Z,105
2018-01-11T13:39:33.670Z,100
2018-01-11T13:40:33.923Z,95
2018-01-11T13:41:34.134Z,90
2018-01-11T13:42:33.881Z,85
2018-01-11T13:43:33.796Z,80
2018-01-11T13:44:33.849Z,75
2018-01-11T13:45:33.901Z,75
2018-01-11T13:46:34.125Z,70
2018-01-11T13:47:34.147Z,65
2018-01-11T13:48:34.228Z,70
2018-01-11T13:49:33.990Z,70
2018-01-11T13:50:33.770Z,70
2018-01-11T13:51:33.768Z,75
2018-01-11T13:52:34.099Z,70
2018-01-11T13:53:33.770Z,70
2018-01-11T13:54:34.066Z,70
2018-01-11T13:55:33.771Z,65
2018-01-11T13:56:34.004Z,65
2018-01-11T13:57:33.981Z,65
2018-01-11T13:58:33.950Z,60
2018-01-11T13:59:33.480Z,60
2018-01-11T14:00:33.810Z,55
2018-01-11T14:01:33.662Z,50
2018-01-11T14:02:33.654Z,50
2018-01-11T14:03:33.905Z,45
2018-01-11T14:04:33.905Z,45
2018-01-11T14:05:33.340Z,40
2018-01-11T14:06:33.971Z,35
2018-01-11T14:07:34.260Z,35
2018-01-11T14:08:33.922Z,35
2018-01-11T14:09:33.941Z,40
2018-01-11T14:10:33.080Z,40
2018-01-11T14:11:33.281Z,40
2018-01-11T14:12:33.309Z,40
2018-01-11T14:13:33.311Z,45
2018-01-11T14:14:33.465Z,45
2018-01-11T14:15:32.971Z,45
2018-01-11T14:16:33.288Z,45
2018-01-11T14:17:32.664Z,45
2018-01-11T14:18:33.232Z,50
2018-01-11T14:19:33.011Z,50
2018-01-11T14:20:33.428Z,45
2018-01-11T14:21:32.638Z,50
2018-01-11T14:22:33.123Z,45
2018-01-11T14:23:32.915Z,45
2018-01-11T14:24:33.757Z,45
2018-01-11T14:25:33.372Z,45